sensor_id;sensor_type;location;lat;lon;timestamp;P1;durP1;ratioP1;P2;durP2;ratioP2
12970;SDS011;6550;48.650;8.774;2022-07-24T00:02:25;6.93;;;6.33;;
12970;SDS011;6550;48.650;8.774;2022-07-24T00:04:52;7.07;;;6.43;;
12970;SDS011;6550;48.650;8.774;2022-07-24T00:07:25;6.37;;;5.87;;
12970;SDS011;6550;48.650;8.774;2022-07-24T00:09:52;8.00;;;6.20;;
12970;SDS011;6550;48.650;8.774;2022-07-24T00:12:19;6.87;;;6.27;;
12970;SDS011;6550;48.650;8.774;2022-07-24T00:14:46;8.80;;;6.47;;
12970;SDS011;6550;48.650;8.774;2022-07-24T00:17:15;7.33;;;6.07;;
12970;SDS011;6550;48.650;8.774;2022-07-24T00:19:42;7.03;;;6.33;;
12970;SDS011;6550;48.650;8.774;2022-07-24T00:22:08;6.60;;;6.07;;
12970;SDS011;6550;48.650;8.774;2022-07-24T00:24:37;7.33;;;6.63;;
12970;SDS011;6550;48.650;8.774;2022-07-24T00:27:04;6.53;;;5.93;;
12970;SDS011;6550;48.650;8.774;2022-07-24T00:29:31;6.83;;;6.23;;
12970;SDS011;6550;48.650;8.774;2022-07-24T00:31:58;7.10;;;6.50;;
12970;SDS011;6550;48.650;8.774;2022-07-24T00:34:25;7.17;;;5.83;;
12970;SDS011;6550;48.650;8.774;2022-07-24T00:36:53;6.95;;;6.35;;
12970;SDS011;6550;48.650;8.774;2022-07-24T00:39:22;7.47;;;6.13;;
12970;SDS011;6550;48.650;8.774;2022-07-24T00:41:49;6.97;;;6.37;;
12970;SDS011;6550;48.650;8.774;2022-07-24T00:44:22;7.60;;;6.87;;
12970;SDS011;6550;48.650;8.774;2022-07-24T00:46:49;6.80;;;6.00;;
12970;SDS011;6550;48.650;8.774;2022-07-24T00:49:18;6.70;;;6.00;;
12970;SDS011;6550;48.650;8.774;2022-07-24T00:51:49;7.53;;;6.67;;
12970;SDS011;6550;48.650;8.774;2022-07-24T00:54:18;8.57;;;6.60;;
12970;SDS011;6550;48.650;8.774;2022-07-24T00:56:47;8.03;;;6.70;;
12970;SDS011;6550;48.650;8.774;2022-07-24T00:59:18;6.40;;;5.80;;
12970;SDS011;6550;48.650;8.774;2022-07-24T01:01:48;7.43;;;6.73;;
12970;SDS011;6550;48.650;8.774;2022-07-24T01:04:18;7.53;;;6.27;;
12970;SDS011;6550;48.650;8.774;2022-07-24T01:06:47;7.77;;;6.60;;
12970;SDS011;6550;48.650;8.774;2022-07-24T01:09:14;6.77;;;6.07;;
12970;SDS011;6550;48.650;8.774;2022-07-24T01:11:42;6.95;;;6.32;;
12970;SDS011;6550;48.650;8.774;2022-07-24T01:14:12;8.03;;;6.73;;
12970;SDS011;6550;48.650;8.774;2022-07-24T01:16:39;7.40;;;6.70;;
12970;SDS011;6550;48.650;8.774;2022-07-24T01:19:07;8.87;;;6.57;;
12970;SDS011;6550;48.650;8.774;2022-07-24T01:21:38;9.15;;;6.53;;
12970;SDS011;6550;48.650;8.774;2022-07-24T01:24:11;7.60;;;6.03;;
12970;SDS011;6550;48.650;8.774;2022-07-24T01:26:38;7.57;;;6.90;;
12970;SDS011;6550;48.650;8.774;2022-07-24T01:29:07;7.70;;;6.60;;
12970;SDS011;6550;48.650;8.774;2022-07-24T01:31:36;7.27;;;6.57;;
12970;SDS011;6550;48.650;8.774;2022-07-24T01:34:05;7.50;;;6.80;;
12970;SDS011;6550;48.650;8.774;2022-07-24T01:36:34;7.33;;;6.60;;
12970;SDS011;6550;48.650;8.774;2022-07-24T01:39:01;10.27;;;6.60;;
12970;SDS011;6550;48.650;8.774;2022-07-24T01:41:29;8.90;;;7.00;;
12970;SDS011;6550;48.650;8.774;2022-07-24T01:43:56;7.33;;;6.50;;
12970;SDS011;6550;48.650;8.774;2022-07-24T01:46:25;6.90;;;6.30;;
12970;SDS011;6550;48.650;8.774;2022-07-24T01:48:52;7.67;;;6.90;;
12970;SDS011;6550;48.650;8.774;2022-07-24T01:51:21;7.67;;;6.90;;
12970;SDS011;6550;48.650;8.774;2022-07-24T01:53:48;8.07;;;6.80;;
12970;SDS011;6550;48.650;8.774;2022-07-24T01:56:19;7.60;;;6.80;;
12970;SDS011;6550;48.650;8.774;2022-07-24T01:58:50;7.37;;;6.67;;
12970;SDS011;6550;48.650;8.774;2022-07-24T02:01:17;7.20;;;6.50;;
12970;SDS011;6550;48.650;8.774;2022-07-24T02:03:44;7.30;;;6.70;;
12970;SDS011;6550;48.650;8.774;2022-07-24T02:06:11;8.30;;;7.50;;
12970;SDS011;6550;48.650;8.774;2022-07-24T02:08:38;7.57;;;6.67;;
12970;SDS011;6550;48.650;8.774;2022-07-24T02:11:05;8.70;;;6.90;;
12970;SDS011;6550;48.650;8.774;2022-07-24T02:13:32;7.77;;;7.00;;
12970;SDS011;6550;48.650;8.774;2022-07-24T02:16:01;11.33;;;6.57;;
12970;SDS011;6550;48.650;8.774;2022-07-24T02:18:31;8.23;;;7.03;;
12970;SDS011;6550;48.650;8.774;2022-07-24T02:20:58;9.83;;;7.33;;
12970;SDS011;6550;48.650;8.774;2022-07-24T02:23:27;7.23;;;6.53;;
12970;SDS011;6550;48.650;8.774;2022-07-24T02:25:53;7.50;;;6.73;;
12970;SDS011;6550;48.650;8.774;2022-07-24T02:28:20;7.50;;;6.80;;
12970;SDS011;6550;48.650;8.774;2022-07-24T02:30:50;7.85;;;7.05;;
12970;SDS011;6550;48.650;8.774;2022-07-24T02:33:17;7.70;;;7.00;;
12970;SDS011;6550;48.650;8.774;2022-07-24T02:35:46;7.37;;;6.67;;
12970;SDS011;6550;48.650;8.774;2022-07-24T02:38:13;8.50;;;7.57;;
12970;SDS011;6550;48.650;8.774;2022-07-24T02:40:39;7.70;;;7.10;;
12970;SDS011;6550;48.650;8.774;2022-07-24T02:43:06;7.57;;;6.87;;
12970;SDS011;6550;48.650;8.774;2022-07-24T02:45:33;7.97;;;7.17;;
12970;SDS011;6550;48.650;8.774;2022-07-24T02:48:00;9.93;;;7.30;;
12970;SDS011;6550;48.650;8.774;2022-07-24T02:50:30;8.40;;;7.70;;
12970;SDS011;6550;48.650;8.774;2022-07-24T02:52:58;7.60;;;6.90;;
12970;SDS011;6550;48.650;8.774;2022-07-24T02:55:30;7.80;;;7.07;;
12970;SDS011;6550;48.650;8.774;2022-07-24T02:57:59;8.03;;;7.30;;
12970;SDS011;6550;48.650;8.774;2022-07-24T03:00:25;7.23;;;6.63;;
12970;SDS011;6550;48.650;8.774;2022-07-24T03:02:52;7.75;;;7.05;;
12970;SDS011;6550;48.650;8.774;2022-07-24T03:05:21;7.57;;;6.90;;
12970;SDS011;6550;48.650;8.774;2022-07-24T03:07:48;8.27;;;7.47;;
12970;SDS011;6550;48.650;8.774;2022-07-24T03:10:15;7.70;;;6.90;;
12970;SDS011;6550;48.650;8.774;2022-07-24T03:12:44;7.90;;;7.20;;
12970;SDS011;6550;48.650;8.774;2022-07-24T03:15:14;7.43;;;6.73;;
12970;SDS011;6550;48.650;8.774;2022-07-24T03:20:22;7.73;;;6.77;;
12970;SDS011;6550;48.650;8.774;2022-07-24T03:22:54;7.73;;;6.97;;
12970;SDS011;6550;48.650;8.774;2022-07-24T03:25:22;7.70;;;7.00;;
12970;SDS011;6550;48.650;8.774;2022-07-24T03:27:49;7.80;;;6.83;;
12970;SDS011;6550;48.650;8.774;2022-07-24T03:30:19;8.27;;;7.57;;
12970;SDS011;6550;48.650;8.774;2022-07-24T03:32:46;8.67;;;7.87;;
12970;SDS011;6550;48.650;8.774;2022-07-24T03:35:13;7.07;;;6.47;;
12970;SDS011;6550;48.650;8.774;2022-07-24T03:37:40;7.80;;;7.10;;
12970;SDS011;6550;48.650;8.774;2022-07-24T03:40:09;7.53;;;6.73;;
12970;SDS011;6550;48.650;8.774;2022-07-24T03:42:39;8.33;;;7.33;;
12970;SDS011;6550;48.650;8.774;2022-07-24T03:45:07;8.63;;;6.90;;
12970;SDS011;6550;48.650;8.774;2022-07-24T03:47:34;8.60;;;7.80;;
12970;SDS011;6550;48.650;8.774;2022-07-24T03:50:01;8.63;;;7.73;;
12970;SDS011;6550;48.650;8.774;2022-07-24T03:52:33;7.93;;;7.23;;
12970;SDS011;6550;48.650;8.774;2022-07-24T03:55:03;7.80;;;6.77;;
12970;SDS011;6550;48.650;8.774;2022-07-24T03:57:30;8.47;;;7.03;;
12970;SDS011;6550;48.650;8.774;2022-07-24T03:59:57;8.07;;;7.37;;
12970;SDS011;6550;48.650;8.774;2022-07-24T04:02:23;8.30;;;7.50;;
12970;SDS011;6550;48.650;8.774;2022-07-24T04:04:50;8.10;;;7.30;;
12970;SDS011;6550;48.650;8.774;2022-07-24T04:07:17;8.80;;;7.03;;
12970;SDS011;6550;48.650;8.774;2022-07-24T04:09:47;7.93;;;7.13;;
12970;SDS011;6550;48.650;8.774;2022-07-24T04:12:13;8.30;;;7.50;;
12970;SDS011;6550;48.650;8.774;2022-07-24T04:14:40;7.80;;;7.20;;
12970;SDS011;6550;48.650;8.774;2022-07-24T04:17:07;9.27;;;7.33;;
12970;SDS011;6550;48.650;8.774;2022-07-24T04:19:34;8.83;;;8.07;;
12970;SDS011;6550;48.650;8.774;2022-07-24T04:22:01;7.53;;;6.83;;
12970;SDS011;6550;48.650;8.774;2022-07-24T04:24:28;8.40;;;7.70;;
12970;SDS011;6550;48.650;8.774;2022-07-24T04:26:57;7.87;;;7.13;;
12970;SDS011;6550;48.650;8.774;2022-07-24T04:29:26;9.60;;;8.23;;
12970;SDS011;6550;48.650;8.774;2022-07-24T04:31:52;8.85;;;7.95;;
12970;SDS011;6550;48.650;8.774;2022-07-24T04:34:19;8.27;;;7.57;;
12970;SDS011;6550;48.650;8.774;2022-07-24T04:36:46;7.50;;;6.80;;
12970;SDS011;6550;48.650;8.774;2022-07-24T04:39:13;8.20;;;7.50;;
12970;SDS011;6550;48.650;8.774;2022-07-24T04:41:41;8.97;;;7.63;;
12970;SDS011;6550;48.650;8.774;2022-07-24T04:44:08;8.75;;;7.30;;
12970;SDS011;6550;48.650;8.774;2022-07-24T04:46:37;7.77;;;7.17;;
12970;SDS011;6550;48.650;8.774;2022-07-24T04:49:04;7.73;;;7.03;;
12970;SDS011;6550;48.650;8.774;2022-07-24T04:51:34;8.33;;;7.63;;
12970;SDS011;6550;48.650;8.774;2022-07-24T04:54:01;7.77;;;6.80;;
12970;SDS011;6550;48.650;8.774;2022-07-24T04:56:30;7.93;;;7.17;;
12970;SDS011;6550;48.650;8.774;2022-07-24T04:58:59;8.60;;;7.37;;
12970;SDS011;6550;48.650;8.774;2022-07-24T05:01:28;7.43;;;6.83;;
12970;SDS011;6550;48.650;8.774;2022-07-24T05:03:55;8.10;;;7.30;;
12970;SDS011;6550;48.650;8.774;2022-07-24T05:06:23;8.57;;;7.78;;
12970;SDS011;6550;48.650;8.774;2022-07-24T05:08:50;8.60;;;7.90;;
12970;SDS011;6550;48.650;8.774;2022-07-24T05:11:17;9.00;;;8.10;;
12970;SDS011;6550;48.650;8.774;2022-07-24T05:13:46;8.97;;;7.60;;
12970;SDS011;6550;48.650;8.774;2022-07-24T05:16:13;10.23;;;7.47;;
12970;SDS011;6550;48.650;8.774;2022-07-24T05:18:40;9.23;;;8.33;;
12970;SDS011;6550;48.650;8.774;2022-07-24T05:21:07;9.50;;;7.33;;
12970;SDS011;6550;48.650;8.774;2022-07-24T05:23:38;9.20;;;8.43;;
12970;SDS011;6550;48.650;8.774;2022-07-24T05:26:05;10.17;;;8.00;;
12970;SDS011;6550;48.650;8.774;2022-07-24T05:28:32;8.73;;;7.93;;
12970;SDS011;6550;48.650;8.774;2022-07-24T05:30:59;8.17;;;7.47;;
12970;SDS011;6550;48.650;8.774;2022-07-24T05:33:28;9.10;;;7.90;;
12970;SDS011;6550;48.650;8.774;2022-07-24T05:35:55;8.40;;;7.47;;
12970;SDS011;6550;48.650;8.774;2022-07-24T05:38:27;9.30;;;8.40;;
12970;SDS011;6550;48.650;8.774;2022-07-24T05:40:53;8.57;;;7.77;;
12970;SDS011;6550;48.650;8.774;2022-07-24T05:43:21;10.57;;;7.87;;
12970;SDS011;6550;48.650;8.774;2022-07-24T05:45:49;8.20;;;7.20;;
12970;SDS011;6550;48.650;8.774;2022-07-24T05:48:15;7.63;;;6.93;;
12970;SDS011;6550;48.650;8.774;2022-07-24T05:50:47;7.70;;;7.00;;
12970;SDS011;6550;48.650;8.774;2022-07-24T05:53:14;7.50;;;6.80;;
12970;SDS011;6550;48.650;8.774;2022-07-24T05:55:45;7.53;;;6.57;;
12970;SDS011;6550;48.650;8.774;2022-07-24T05:58:12;7.80;;;7.10;;
12970;SDS011;6550;48.650;8.774;2022-07-24T06:00:42;7.07;;;6.47;;
12970;SDS011;6550;48.650;8.774;2022-07-24T06:03:11;7.00;;;6.30;;
12970;SDS011;6550;48.650;8.774;2022-07-24T06:05:40;7.67;;;7.00;;
12970;SDS011;6550;48.650;8.774;2022-07-24T06:08:09;7.40;;;6.40;;
12970;SDS011;6550;48.650;8.774;2022-07-24T06:10:36;7.40;;;6.80;;
12970;SDS011;6550;48.650;8.774;2022-07-24T06:13:03;7.28;;;6.63;;
12970;SDS011;6550;48.650;8.774;2022-07-24T06:15:30;7.57;;;6.77;;
12970;SDS011;6550;48.650;8.774;2022-07-24T06:18:02;7.03;;;6.50;;
12970;SDS011;6550;48.650;8.774;2022-07-24T06:20:32;6.83;;;6.13;;
12970;SDS011;6550;48.650;8.774;2022-07-24T06:23:01;7.23;;;6.50;;
12970;SDS011;6550;48.650;8.774;2022-07-24T06:25:30;8.93;;;5.93;;
12970;SDS011;6550;48.650;8.774;2022-07-24T06:27:57;7.10;;;6.03;;
12970;SDS011;6550;48.650;8.774;2022-07-24T06:30:26;6.67;;;6.07;;
12970;SDS011;6550;48.650;8.774;2022-07-24T06:32:58;6.37;;;5.87;;
12970;SDS011;6550;48.650;8.774;2022-07-24T06:35:26;8.07;;;6.20;;
12970;SDS011;6550;48.650;8.774;2022-07-24T06:37:56;5.80;;;5.40;;
12970;SDS011;6550;48.650;8.774;2022-07-24T06:40:22;5.93;;;5.43;;
12970;SDS011;6550;48.650;8.774;2022-07-24T06:42:49;5.97;;;5.43;;
12970;SDS011;6550;48.650;8.774;2022-07-24T06:45:17;6.57;;;6.07;;
12970;SDS011;6550;48.650;8.774;2022-07-24T06:47:46;6.43;;;5.83;;
12970;SDS011;6550;48.650;8.774;2022-07-24T06:50:13;5.60;;;5.18;;
12970;SDS011;6550;48.650;8.774;2022-07-24T06:52:41;6.67;;;6.03;;
12970;SDS011;6550;48.650;8.774;2022-07-24T06:55:08;6.13;;;5.53;;
12970;SDS011;6550;48.650;8.774;2022-07-24T06:57:35;5.47;;;4.97;;
12970;SDS011;6550;48.650;8.774;2022-07-24T07:00:06;6.63;;;5.32;;
12970;SDS011;6550;48.650;8.774;2022-07-24T07:02:37;6.23;;;5.73;;
12970;SDS011;6550;48.650;8.774;2022-07-24T07:05:05;5.97;;;5.37;;
12970;SDS011;6550;48.650;8.774;2022-07-24T07:07:34;6.47;;;5.53;;
12970;SDS011;6550;48.650;8.774;2022-07-24T07:10:02;6.00;;;5.50;;
12970;SDS011;6550;48.650;8.774;2022-07-24T07:12:34;5.10;;;4.70;;
12970;SDS011;6550;48.650;8.774;2022-07-24T07:15:06;7.50;;;5.40;;
12970;SDS011;6550;48.650;8.774;2022-07-24T07:17:37;6.23;;;5.53;;
12970;SDS011;6550;48.650;8.774;2022-07-24T07:20:08;8.70;;;5.43;;
12970;SDS011;6550;48.650;8.774;2022-07-24T07:22:36;5.60;;;5.10;;
12970;SDS011;6550;48.650;8.774;2022-07-24T07:25:08;5.83;;;5.30;;
12970;SDS011;6550;48.650;8.774;2022-07-24T07:27:37;5.80;;;5.30;;
12970;SDS011;6550;48.650;8.774;2022-07-24T07:30:06;6.20;;;5.60;;
12970;SDS011;6550;48.650;8.774;2022-07-24T07:32:34;5.47;;;5.00;;
12970;SDS011;6550;48.650;8.774;2022-07-24T07:35:01;5.87;;;5.37;;
12970;SDS011;6550;48.650;8.774;2022-07-24T07:37:30;5.10;;;4.70;;
12970;SDS011;6550;48.650;8.774;2022-07-24T07:39:59;5.10;;;4.70;;
12970;SDS011;6550;48.650;8.774;2022-07-24T07:42:26;5.07;;;4.67;;
12970;SDS011;6550;48.650;8.774;2022-07-24T07:44:53;5.53;;;4.97;;
12970;SDS011;6550;48.650;8.774;2022-07-24T07:47:20;6.53;;;4.40;;
12970;SDS011;6550;48.650;8.774;2022-07-24T07:49:50;5.53;;;4.30;;
12970;SDS011;6550;48.650;8.774;2022-07-24T07:52:16;6.03;;;4.43;;
12970;SDS011;6550;48.650;8.774;2022-07-24T07:54:43;5.13;;;4.33;;
12970;SDS011;6550;48.650;8.774;2022-07-24T07:57:11;4.80;;;4.40;;
12970;SDS011;6550;48.650;8.774;2022-07-24T07:59:40;4.90;;;4.43;;
12970;SDS011;6550;48.650;8.774;2022-07-24T08:02:09;6.80;;;4.27;;
12970;SDS011;6550;48.650;8.774;2022-07-24T08:04:38;7.40;;;4.57;;
12970;SDS011;6550;48.650;8.774;2022-07-24T08:07:05;5.90;;;4.40;;
12970;SDS011;6550;48.650;8.774;2022-07-24T08:09:32;5.20;;;4.60;;
12970;SDS011;6550;48.650;8.774;2022-07-24T08:12:00;4.97;;;4.53;;
12970;SDS011;6550;48.650;8.774;2022-07-24T08:14:27;5.10;;;4.10;;
12970;SDS011;6550;48.650;8.774;2022-07-24T08:16:54;4.50;;;4.10;;
12970;SDS011;6550;48.650;8.774;2022-07-24T08:19:21;3.90;;;3.60;;
12970;SDS011;6550;48.650;8.774;2022-07-24T08:21:50;5.00;;;4.50;;
12970;SDS011;6550;48.650;8.774;2022-07-24T08:24:19;6.38;;;4.82;;
12970;SDS011;6550;48.650;8.774;2022-07-24T08:26:49;5.07;;;4.57;;
12970;SDS011;6550;48.650;8.774;2022-07-24T08:29:16;4.27;;;3.83;;
12970;SDS011;6550;48.650;8.774;2022-07-24T08:31:43;5.20;;;4.70;;
12970;SDS011;6550;48.650;8.774;2022-07-24T08:34:12;5.63;;;4.13;;
12970;SDS011;6550;48.650;8.774;2022-07-24T08:36:39;4.70;;;4.30;;
12970;SDS011;6550;48.650;8.774;2022-07-24T08:39:11;5.03;;;4.10;;
12970;SDS011;6550;48.650;8.774;2022-07-24T08:41:45;4.80;;;4.30;;
12970;SDS011;6550;48.650;8.774;2022-07-24T08:44:12;5.27;;;4.70;;
12970;SDS011;6550;48.650;8.774;2022-07-24T08:46:40;4.93;;;4.43;;
12970;SDS011;6550;48.650;8.774;2022-07-24T08:49:12;4.80;;;4.40;;
12970;SDS011;6550;48.650;8.774;2022-07-24T08:51:40;4.37;;;3.90;;
12970;SDS011;6550;48.650;8.774;2022-07-24T08:54:10;4.43;;;4.03;;
12970;SDS011;6550;48.650;8.774;2022-07-24T08:56:38;4.77;;;4.33;;
12970;SDS011;6550;48.650;8.774;2022-07-24T08:59:14;6.47;;;4.57;;
12970;SDS011;6550;48.650;8.774;2022-07-24T09:01:48;4.23;;;3.93;;
12970;SDS011;6550;48.650;8.774;2022-07-24T09:04:32;5.77;;;4.60;;
12970;SDS011;6550;48.650;8.774;2022-07-24T09:07:09;4.47;;;4.07;;
12970;SDS011;6550;48.650;8.774;2022-07-24T09:12:45;5.23;;;4.17;;
12970;SDS011;6550;48.650;8.774;2022-07-24T09:15:22;4.63;;;4.10;;
12970;SDS011;6550;48.650;8.774;2022-07-24T09:17:50;4.60;;;4.20;;
12970;SDS011;6550;48.650;8.774;2022-07-24T09:20:22;4.77;;;4.37;;
12970;SDS011;6550;48.650;8.774;2022-07-24T09:22:50;4.67;;;4.20;;
12970;SDS011;6550;48.650;8.774;2022-07-24T09:25:21;4.33;;;3.93;;
12970;SDS011;6550;48.650;8.774;2022-07-24T09:27:57;4.90;;;4.40;;
12970;SDS011;6550;48.650;8.774;2022-07-24T09:33:02;5.53;;;4.40;;
12970;SDS011;6550;48.650;8.774;2022-07-24T09:38:37;7.73;;;4.73;;
12970;SDS011;6550;48.650;8.774;2022-07-24T09:41:06;5.57;;;4.40;;
12970;SDS011;6550;48.650;8.774;2022-07-24T09:43:34;4.53;;;4.10;;
12970;SDS011;6550;48.650;8.774;2022-07-24T09:46:08;5.00;;;4.50;;
12970;SDS011;6550;48.650;8.774;2022-07-24T09:51:09;4.30;;;4.00;;
12970;SDS011;6550;48.650;8.774;2022-07-24T09:53:40;5.97;;;4.33;;
12970;SDS011;6550;48.650;8.774;2022-07-24T09:56:12;4.80;;;4.40;;
12970;SDS011;6550;48.650;8.774;2022-07-24T10:01:13;4.93;;;4.30;;
12970;SDS011;6550;48.650;8.774;2022-07-24T10:03:46;4.60;;;4.13;;
12970;SDS011;6550;48.650;8.774;2022-07-24T10:06:15;5.00;;;4.33;;
12970;SDS011;6550;48.650;8.774;2022-07-24T10:08:45;6.50;;;4.20;;
12970;SDS011;6550;48.650;8.774;2022-07-24T10:11:13;5.50;;;4.47;;
12970;SDS011;6550;48.650;8.774;2022-07-24T10:13:40;4.33;;;3.93;;
12970;SDS011;6550;48.650;8.774;2022-07-24T10:21:38;7.33;;;4.27;;
12970;SDS011;6550;48.650;8.774;2022-07-24T10:27:04;4.30;;;3.90;;
12970;SDS011;6550;48.650;8.774;2022-07-24T10:29:34;9.50;;;4.10;;
12970;SDS011;6550;48.650;8.774;2022-07-24T10:32:02;4.50;;;4.10;;
12970;SDS011;6550;48.650;8.774;2022-07-24T10:34:43;4.67;;;3.63;;
12970;SDS011;6550;48.650;8.774;2022-07-24T10:40:14;4.93;;;3.93;;
12970;SDS011;6550;48.650;8.774;2022-07-24T10:51:20;6.63;;;4.00;;
12970;SDS011;6550;48.650;8.774;2022-07-24T11:06:53;5.30;;;3.90;;
12970;SDS011;6550;48.650;8.774;2022-07-24T11:09:25;4.13;;;3.63;;
12970;SDS011;6550;48.650;8.774;2022-07-24T11:14:23;4.55;;;4.07;;
12970;SDS011;6550;48.650;8.774;2022-07-24T11:16:50;4.80;;;4.30;;
12970;SDS011;6550;48.650;8.774;2022-07-24T11:21:47;4.50;;;4.10;;
12970;SDS011;6550;48.650;8.774;2022-07-24T11:29:25;4.20;;;3.80;;
12970;SDS011;6550;48.650;8.774;2022-07-24T11:31:55;5.72;;;4.28;;
12970;SDS011;6550;48.650;8.774;2022-07-24T11:34:26;5.32;;;3.92;;
12970;SDS011;6550;48.650;8.774;2022-07-24T11:36:55;5.07;;;4.00;;
12970;SDS011;6550;48.650;8.774;2022-07-24T11:39:29;7.03;;;4.10;;
12970;SDS011;6550;48.650;8.774;2022-07-24T11:41:59;4.10;;;3.80;;
12970;SDS011;6550;48.650;8.774;2022-07-24T11:46:58;4.93;;;3.65;;
12970;SDS011;6550;48.650;8.774;2022-07-24T11:49:53;5.70;;;3.95;;
12970;SDS011;6550;48.650;8.774;2022-07-24T11:54:57;4.07;;;3.78;;
12970;SDS011;6550;48.650;8.774;2022-07-24T11:57:42;5.60;;;3.83;;
12970;SDS011;6550;48.650;8.774;2022-07-24T12:00:33;3.88;;;3.58;;
12970;SDS011;6550;48.650;8.774;2022-07-24T12:03:00;4.38;;;3.97;;
12970;SDS011;6550;48.650;8.774;2022-07-24T12:08:02;4.30;;;3.90;;
12970;SDS011;6550;48.650;8.774;2022-07-24T12:10:42;4.53;;;4.00;;
12970;SDS011;6550;48.650;8.774;2022-07-24T12:13:08;4.38;;;3.70;;
12970;SDS011;6550;48.650;8.774;2022-07-24T12:15:37;3.53;;;3.22;;
12970;SDS011;6550;48.650;8.774;2022-07-24T12:18:07;4.32;;;3.47;;
12970;SDS011;6550;48.650;8.774;2022-07-24T12:20:38;4.30;;;3.90;;
12970;SDS011;6550;48.650;8.774;2022-07-24T12:23:15;4.35;;;3.92;;
12970;SDS011;6550;48.650;8.774;2022-07-24T12:25:45;7.53;;;3.60;;
12970;SDS011;6550;48.650;8.774;2022-07-24T12:28:18;5.93;;;3.63;;
12970;SDS011;6550;48.650;8.774;2022-07-24T12:30:46;4.07;;;3.67;;
12970;SDS011;6550;48.650;8.774;2022-07-24T12:35:53;7.90;;;3.80;;
12970;SDS011;6550;48.650;8.774;2022-07-24T12:38:52;6.28;;;3.95;;
12970;SDS011;6550;48.650;8.774;2022-07-24T12:41:25;4.25;;;3.85;;
12970;SDS011;6550;48.650;8.774;2022-07-24T12:49:10;4.15;;;3.60;;
12970;SDS011;6550;48.650;8.774;2022-07-24T12:51:54;4.00;;;3.60;;
12970;SDS011;6550;48.650;8.774;2022-07-24T12:56:53;4.28;;;3.88;;
12970;SDS011;6550;48.650;8.774;2022-07-24T13:01:56;3.85;;;3.47;;
12970;SDS011;6550;48.650;8.774;2022-07-24T13:07:09;4.85;;;3.78;;
12970;SDS011;6550;48.650;8.774;2022-07-24T13:09:41;4.40;;;3.58;;
12970;SDS011;6550;48.650;8.774;2022-07-24T13:12:09;6.05;;;3.83;;
12970;SDS011;6550;48.650;8.774;2022-07-24T13:14:37;5.05;;;3.40;;
12970;SDS011;6550;48.650;8.774;2022-07-24T13:19:35;3.92;;;3.50;;
12970;SDS011;6550;48.650;8.774;2022-07-24T13:22:03;3.72;;;3.42;;
12970;SDS011;6550;48.650;8.774;2022-07-24T13:24:29;6.15;;;3.45;;
12970;SDS011;6550;48.650;8.774;2022-07-24T13:26:56;5.38;;;3.35;;
12970;SDS011;6550;48.650;8.774;2022-07-24T13:29:29;6.40;;;3.88;;
12970;SDS011;6550;48.650;8.774;2022-07-24T13:31:56;3.88;;;3.58;;
12970;SDS011;6550;48.650;8.774;2022-07-24T13:34:25;3.88;;;3.58;;
12970;SDS011;6550;48.650;8.774;2022-07-24T13:36:56;3.55;;;3.28;;
12970;SDS011;6550;48.650;8.774;2022-07-24T13:39:23;4.75;;;3.55;;
12970;SDS011;6550;48.650;8.774;2022-07-24T13:41:50;3.72;;;3.42;;
12970;SDS011;6550;48.650;8.774;2022-07-24T13:44:17;4.28;;;3.88;;
12970;SDS011;6550;48.650;8.774;2022-07-24T13:46:46;4.30;;;3.90;;
12970;SDS011;6550;48.650;8.774;2022-07-24T13:49:15;4.10;;;3.42;;
12970;SDS011;6550;48.650;8.774;2022-07-24T13:51:44;4.30;;;3.88;;
12970;SDS011;6550;48.650;8.774;2022-07-24T13:54:13;3.97;;;3.60;;
12970;SDS011;6550;48.650;8.774;2022-07-24T13:56:40;5.63;;;4.00;;
12970;SDS011;6550;48.650;8.774;2022-07-24T13:59:07;4.32;;;3.92;;
12970;SDS011;6550;48.650;8.774;2022-07-24T14:01:36;4.70;;;3.75;;
12970;SDS011;6550;48.650;8.774;2022-07-24T14:04:03;3.72;;;3.40;;
12970;SDS011;6550;48.650;8.774;2022-07-24T14:06:54;8.70;;;4.03;;
12970;SDS011;6550;48.650;8.774;2022-07-24T14:09:24;4.35;;;3.90;;
12970;SDS011;6550;48.650;8.774;2022-07-24T14:11:52;4.30;;;4.00;;
12970;SDS011;6550;48.650;8.774;2022-07-24T14:14:19;4.75;;;3.38;;
12970;SDS011;6550;48.650;8.774;2022-07-24T14:16:46;4.80;;;3.60;;
12970;SDS011;6550;48.650;8.774;2022-07-24T14:19:16;3.67;;;3.33;;
12970;SDS011;6550;48.650;8.774;2022-07-24T14:21:45;5.55;;;3.53;;
12970;SDS011;6550;48.650;8.774;2022-07-24T14:24:18;4.20;;;3.80;;
12970;SDS011;6550;48.650;8.774;2022-07-24T14:26:47;3.85;;;3.50;;
12970;SDS011;6550;48.650;8.774;2022-07-24T14:29:16;4.00;;;3.67;;
12970;SDS011;6550;48.650;8.774;2022-07-24T14:31:43;4.40;;;3.95;;
12970;SDS011;6550;48.650;8.774;2022-07-24T14:34:11;4.85;;;4.32;;
12970;SDS011;6550;48.650;8.774;2022-07-24T14:36:37;4.97;;;4.07;;
12970;SDS011;6550;48.650;8.774;2022-07-24T14:39:04;4.50;;;3.80;;
12970;SDS011;6550;48.650;8.774;2022-07-24T14:41:32;4.55;;;4.15;;
12970;SDS011;6550;48.650;8.774;2022-07-24T14:43:59;5.45;;;3.65;;
12970;SDS011;6550;48.650;8.774;2022-07-24T14:46:31;5.60;;;3.58;;
12970;SDS011;6550;48.650;8.774;2022-07-24T14:48:59;5.38;;;4.07;;
12970;SDS011;6550;48.650;8.774;2022-07-24T14:51:26;4.70;;;3.85;;
12970;SDS011;6550;48.650;8.774;2022-07-24T14:53:55;4.95;;;3.67;;
12970;SDS011;6550;48.650;8.774;2022-07-24T14:56:24;3.70;;;3.35;;
12970;SDS011;6550;48.650;8.774;2022-07-24T14:58:52;4.28;;;3.95;;
12970;SDS011;6550;48.650;8.774;2022-07-24T15:01:19;3.95;;;3.55;;
12970;SDS011;6550;48.650;8.774;2022-07-24T15:03:49;5.03;;;4.47;;
12970;SDS011;6550;48.650;8.774;2022-07-24T15:06:21;3.88;;;3.53;;
12970;SDS011;6550;48.650;8.774;2022-07-24T15:08:49;4.32;;;3.70;;
12970;SDS011;6550;48.650;8.774;2022-07-24T15:11:21;4.40;;;4.00;;
12970;SDS011;6550;48.650;8.774;2022-07-24T15:13:51;3.97;;;3.47;;
12970;SDS011;6550;48.650;8.774;2022-07-24T15:16:18;6.25;;;3.70;;
12970;SDS011;6550;48.650;8.774;2022-07-24T15:18:46;6.18;;;3.75;;
12970;SDS011;6550;48.650;8.774;2022-07-24T15:21:13;4.28;;;3.80;;
12970;SDS011;6550;48.650;8.774;2022-07-24T15:23:39;4.47;;;4.07;;
12970;SDS011;6550;48.650;8.774;2022-07-24T15:26:06;5.03;;;4.00;;
12970;SDS011;6550;48.650;8.774;2022-07-24T15:28:38;4.40;;;4.00;;
12970;SDS011;6550;48.650;8.774;2022-07-24T15:31:07;3.97;;;3.35;;
12970;SDS011;6550;48.650;8.774;2022-07-24T15:33:35;5.32;;;3.42;;
12970;SDS011;6550;48.650;8.774;2022-07-24T15:36:02;4.07;;;3.63;;
12970;SDS011;6550;48.650;8.774;2022-07-24T15:38:29;5.55;;;3.47;;
12970;SDS011;6550;48.650;8.774;2022-07-24T15:40:58;4.00;;;3.60;;
12970;SDS011;6550;48.650;8.774;2022-07-24T15:43:27;4.03;;;3.30;;
12970;SDS011;6550;48.650;8.774;2022-07-24T15:45:57;3.50;;;3.20;;
12970;SDS011;6550;48.650;8.774;2022-07-24T15:48:27;4.03;;;3.50;;
12970;SDS011;6550;48.650;8.774;2022-07-24T15:50:53;5.50;;;3.90;;
12970;SDS011;6550;48.650;8.774;2022-07-24T15:53:20;4.50;;;3.40;;
12970;SDS011;6550;48.650;8.774;2022-07-24T15:55:47;3.75;;;3.45;;
12970;SDS011;6550;48.650;8.774;2022-07-24T15:58:14;5.63;;;3.53;;
12970;SDS011;6550;48.650;8.774;2022-07-24T16:00:41;5.53;;;3.60;;
12970;SDS011;6550;48.650;8.774;2022-07-24T16:03:08;8.38;;;3.72;;
12970;SDS011;6550;48.650;8.774;2022-07-24T16:05:35;4.78;;;3.50;;
12970;SDS011;6550;48.650;8.774;2022-07-24T16:08:04;5.50;;;3.50;;
12970;SDS011;6550;48.650;8.774;2022-07-24T16:10:33;3.83;;;3.33;;
12970;SDS011;6550;48.650;8.774;2022-07-24T16:13:00;4.05;;;3.60;;
12970;SDS011;6550;48.650;8.774;2022-07-24T16:15:28;6.00;;;3.10;;
12970;SDS011;6550;48.650;8.774;2022-07-24T16:17:55;5.53;;;4.45;;
12970;SDS011;6550;48.650;8.774;2022-07-24T16:20:22;6.38;;;3.33;;
12970;SDS011;6550;48.650;8.774;2022-07-24T16:22:51;3.88;;;3.45;;
12970;SDS011;6550;48.650;8.774;2022-07-24T16:25:23;6.35;;;3.30;;
12970;SDS011;6550;48.650;8.774;2022-07-24T16:27:52;3.58;;;3.03;;
12970;SDS011;6550;48.650;8.774;2022-07-24T16:30:19;4.60;;;3.35;;
12970;SDS011;6550;48.650;8.774;2022-07-24T16:32:47;3.45;;;3.13;;
12970;SDS011;6550;48.650;8.774;2022-07-24T16:35:16;3.50;;;3.20;;
12970;SDS011;6550;48.650;8.774;2022-07-24T16:37:45;5.53;;;3.50;;